sensor_id;sensor_type;location;lat;lon;timestamp;pressure;altitude;pressure_sealevel;temperature;humidity
64616;BME280;51027;42.162;24.754;2023-07-31T03:31:34;99059.88;;;21.63;100.00
64616;BME280;51027;42.162;24.754;2023-07-31T03:34:00;99086.38;;;21.66;100.00
64616;BME280;51027;42.162;24.754;2023-07-31T03:36:25;99090.34;;;21.62;100.00
64616;BME280;51027;42.162;24.754;2023-07-31T03:38:54;99110.50;;;21.66;100.00
64616;BME280;51027;42.162;24.754;2023-07-31T03:41:19;99108.28;;;21.51;100.00
64616;BME280;51027;42.162;24.754;2023-07-31T03:43:49;99109.41;;;21.59;100.00
64616;BME280;51027;42.162;24.754;2023-07-31T03:46:16;99107.75;;;21.48;100.00
64616;BME280;51027;42.162;24.754;2023-07-31T03:48:41;99125.06;;;21.44;100.00
64616;BME280;51027;42.162;24.754;2023-07-31T03:51:07;99118.19;;;21.32;100.00
64616;BME280;51027;42.162;24.754;2023-07-31T03:53:32;99149.75;;;21.47;100.00
64616;BME280;51027;42.162;24.754;2023-07-31T03:55:58;99130.03;;;21.39;100.00
64616;BME280;51027;42.162;24.754;2023-07-31T03:58:23;99143.66;;;21.55;100.00
64616;BME280;51027;42.162;24.754;2023-07-31T04:00:48;99147.50;;;21.52;100.00
64616;BME280;51027;42.162;24.754;2023-07-31T04:03:14;99144.81;;;21.33;100.00
64616;BME280;51027;42.162;24.754;2023-07-31T04:05:39;99141.88;;;21.36;100.00
64616;BME280;51027;42.162;24.754;2023-07-31T04:08:05;99131.88;;;21.38;100.00
64616;BME280;51027;42.162;24.754;2023-07-31T04:10:30;99147.22;;;21.46;100.00
64616;BME280;51027;42.162;24.754;2023-07-31T04:12:58;99158.06;;;21.44;100.00
64616;BME280;51027;42.162;24.754;2023-07-31T04:15:24;99149.75;;;21.47;100.00
64616;BME280;51027;42.162;24.754;2023-07-31T04:17:49;99148.91;;;21.47;100.00
64616;BME280;51027;42.162;24.754;2023-07-31T04:20:14;99158.78;;;21.46;100.00
64616;BME280;51027;42.162;24.754;2023-07-31T04:22:40;99149.75;;;21.47;100.00
64616;BME280;51027;42.162;24.754;2023-07-31T04:25:05;99142.28;;;21.41;100.00
64616;BME280;51027;42.162;24.754;2023-07-31T04:27:31;99151.31;;;21.40;100.00
64616;BME280;51027;42.162;24.754;2023-07-31T04:29:56;99171.75;;;21.51;100.00
64616;BME280;51027;42.162;24.754;2023-07-31T04:32:22;99167.69;;;21.47;100.00
64616;BME280;51027;42.162;24.754;2023-07-31T04:34:47;99174.88;;;21.46;100.00
64616;BME280;51027;42.162;24.754;2023-07-31T04:37:12;99168.94;;;21.52;100.00
64616;BME280;51027;42.162;24.754;2023-07-31T04:39:39;99173.28;;;21.53;100.00
64616;BME280;51027;42.162;24.754;2023-07-31T04:42:04;99175.41;;;21.60;100.00
64616;BME280;51027;42.162;24.754;2023-07-31T04:44:30;99172.44;;;21.53;100.00
64616;BME280;51027;42.162;24.754;2023-07-31T04:46:55;99163.84;;;21.49;100.00
64616;BME280;51027;42.162;24.754;2023-07-31T04:49:21;99166.94;;;21.54;100.00
64616;BME280;51027;42.162;24.754;2023-07-31T04:51:47;99157.91;;;21.55;100.00
64616;BME280;51027;42.162;24.754;2023-07-31T04:54:12;99171.31;;;21.65;100.00
64616;BME280;51027;42.162;24.754;2023-07-31T04:56:40;99164.38;;;21.72;100.00
64616;BME280;51027;42.162;24.754;2023-07-31T04:59:06;99131.13;;;21.55;100.00
64616;BME280;51027;42.162;24.754;2023-07-31T05:01:31;99179.72;;;21.99;100.00
64616;BME280;51027;42.162;24.754;2023-07-31T05:03:57;99168.56;;;21.94;100.00
64616;BME280;51027;42.162;24.754;2023-07-31T05:06:22;99170.00;;;22.08;100.00
64616;BME280;51027;42.162;24.754;2023-07-31T05:08:48;99164.19;;;22.12;100.00
64616;BME280;51027;42.162;24.754;2023-07-31T05:11:13;99172.06;;;22.14;100.00
64616;BME280;51027;42.162;24.754;2023-07-31T05:13:39;99169.16;;;21.98;100.00
64616;BME280;51027;42.162;24.754;2023-07-31T05:16:04;99174.75;;;22.14;100.00
64616;BME280;51027;42.162;24.754;2023-07-31T05:18:29;99165.84;;;22.23;100.00
64616;BME280;51027;42.162;24.754;2023-07-31T05:20:55;99165.84;;;22.04;100.00
64616;BME280;51027;42.162;24.754;2023-07-31T05:23:20;99175.44;;;22.16;100.00
64616;BME280;51027;42.162;24.754;2023-07-31T05:25:46;99178.28;;;22.14;100.00
64616;BME280;51027;42.162;24.754;2023-07-31T05:28:12;99169.69;;;22.11;100.00
64616;BME280;51027;42.162;24.754;2023-07-31T05:30:38;99177.22;;;22.35;100.00
64616;BME280;51027;42.162;24.754;2023-07-31T05:33:03;99184.66;;;22.51;100.00
64616;BME280;51027;42.162;24.754;2023-07-31T05:35:29;99184.66;;;22.51;100.00
64616;BME280;51027;42.162;24.754;2023-07-31T05:37:54;99178.88;;;22.46;100.00
64616;BME280;51027;42.162;24.754;2023-07-31T05:40:19;99182.16;;;22.67;100.00
64616;BME280;51027;42.162;24.754;2023-07-31T05:42:45;99179.56;;;22.75;100.00
64616;BME280;51027;42.162;24.754;2023-07-31T05:45:10;99187.19;;;22.80;100.00
64616;BME280;51027;42.162;24.754;2023-07-31T05:47:36;99172.06;;;22.79;100.00
64616;BME280;51027;42.162;24.754;2023-07-31T05:50:01;99176.69;;;22.86;100.00
64616;BME280;51027;42.162;24.754;2023-07-31T05:52:27;99186.16;;;22.90;100.00
64616;BME280;51027;42.162;24.754;2023-07-31T05:54:54;99188.22;;;22.96;100.00
64616;BME280;51027;42.162;24.754;2023-07-31T05:57:19;99192.31;;;23.18;100.00
64616;BME280;51027;42.162;24.754;2023-07-31T05:59:45;99183.25;;;23.37;100.00
64616;BME280;51027;42.162;24.754;2023-07-31T06:02:10;99185.56;;;23.50;100.00
64616;BME280;51027;42.162;24.754;2023-07-31T06:04:36;99200.00;;;23.84;100.00
64616;BME280;51027;42.162;24.754;2023-07-31T06:07:01;99179.50;;;23.83;100.00
64616;BME280;51027;42.162;24.754;2023-07-31T06:09:28;99203.19;;;24.06;100.00
64616;BME280;51027;42.162;24.754;2023-07-31T06:11:53;99194.88;;;24.25;100.00
64616;BME280;51027;42.162;24.754;2023-07-31T06:14:18;99191.28;;;24.34;100.00
64616;BME280;51027;42.162;24.754;2023-07-31T06:16:44;99183.03;;;24.36;100.00
64616;BME280;51027;42.162;24.754;2023-07-31T06:19:10;99151.63;;;24.19;100.00
64616;BME280;51027;42.162;24.754;2023-07-31T06:21:36;99188.06;;;24.65;100.00
64616;BME280;51027;42.162;24.754;2023-07-31T06:24:03;99188.41;;;24.70;100.00
64616;BME280;51027;42.162;24.754;2023-07-31T06:26:29;99186.00;;;24.59;100.00
64616;BME280;51027;42.162;24.754;2023-07-31T06:28:54;99187.97;;;24.49;100.00
64616;BME280;51027;42.162;24.754;2023-07-31T06:31:19;99194.97;;;24.67;100.00
64616;BME280;51027;42.162;24.754;2023-07-31T06:33:48;99183.75;;;24.88;100.00
64616;BME280;51027;42.162;24.754;2023-07-31T06:36:14;99182.75;;;24.89;100.00
64616;BME280;51027;42.162;24.754;2023-07-31T06:38:39;99190.94;;;25.14;100.00
64616;BME280;51027;42.162;24.754;2023-07-31T06:41:05;99183.19;;;25.27;100.00
64616;BME280;51027;42.162;24.754;2023-07-31T06:43:30;99188.06;;;25.32;100.00
64616;BME280;51027;42.162;24.754;2023-07-31T06:45:55;99178.13;;;25.32;100.00
64616;BME280;51027;42.162;24.754;2023-07-31T06:48:21;99175.97;;;25.36;100.00
64616;BME280;51027;42.162;24.754;2023-07-31T06:50:46;99186.56;;;25.53;100.00
64616;BME280;51027;42.162;24.754;2023-07-31T06:53:12;99172.94;;;25.47;100.00
64616;BME280;51027;42.162;24.754;2023-07-31T06:55:37;99188.94;;;25.40;100.00
64616;BME280;51027;42.162;24.754;2023-07-31T06:58:02;99185.59;;;25.46;100.00
64616;BME280;51027;42.162;24.754;2023-07-31T07:00:28;99174.81;;;25.54;100.00
64616;BME280;51027;42.162;24.754;2023-07-31T07:02:54;99183.75;;;25.55;100.00
64616;BME280;51027;42.162;24.754;2023-07-31T07:05:19;99180.69;;;25.58;100.00
64616;BME280;51027;42.162;24.754;2023-07-31T07:07:45;99176.81;;;25.36;100.00
64616;BME280;51027;42.162;24.754;2023-07-31T07:10:11;99171.94;;;25.56;100.00
64616;BME280;51027;42.162;24.754;2023-07-31T07:12:36;99177.34;;;25.72;100.00
64616;BME280;51027;42.162;24.754;2023-07-31T07:15:02;99184.53;;;26.04;100.00
64616;BME280;51027;42.162;24.754;2023-07-31T07:17:29;99181.22;;;25.86;100.00
64616;BME280;51027;42.162;24.754;2023-07-31T07:19:58;99149.19;;;25.34;100.00
64616;BME280;51027;42.162;24.754;2023-07-31T07:22:23;99169.41;;;25.71;100.00
64616;BME280;51027;42.162;24.754;2023-07-31T07:24:49;99186.59;;;26.02;100.00
64616;BME280;51027;42.162;24.754;2023-07-31T07:27:14;99178.28;;;26.20;100.00
64616;BME280;51027;42.162;24.754;2023-07-31T07:29:40;99172.72;;;26.22;100.00
64616;BME280;51027;42.162;24.754;2023-07-31T07:32:05;99177.06;;;26.31;100.00
64616;BME280;51027;42.162;24.754;2023-07-31T07:34:31;99177.56;;;26.42;100.00
64616;BME280;51027;42.162;24.754;2023-07-31T07:36:56;99171.59;;;26.55;100.00
64616;BME280;51027;42.162;24.754;2023-07-31T07:39:22;99173.81;;;26.52;100.00
64616;BME280;51027;42.162;24.754;2023-07-31T07:41:47;99177.72;;;26.88;94.48
64616;BME280;51027;42.162;24.754;2023-07-31T07:44:13;99144.25;;;26.58;88.26
64616;BME280;51027;42.162;24.754;2023-07-31T07:46:40;99181.78;;;26.45;85.03
64616;BME280;51027;42.162;24.754;2023-07-31T07:49:05;99179.13;;;26.37;82.26
64616;BME280;51027;42.162;24.754;2023-07-31T07:51:31;99173.88;;;26.27;81.06
64616;BME280;51027;42.162;24.754;2023-07-31T07:53:57;99174.94;;;26.65;79.33
64616;BME280;51027;42.162;24.754;2023-07-31T07:56:24;99178.34;;;26.98;78.67
64616;BME280;51027;42.162;24.754;2023-07-31T07:58:50;99178.31;;;27.07;76.10
64616;BME280;51027;42.162;24.754;2023-07-31T08:01:16;99181.38;;;27.26;75.91
64616;BME280;51027;42.162;24.754;2023-07-31T08:03:41;99161.38;;;27.36;76.60
64616;BME280;51027;42.162;24.754;2023-07-31T08:06:07;99176.97;;;27.79;75.72
64616;BME280;51027;42.162;24.754;2023-07-31T08:08:34;99173.13;;;27.89;74.26
64616;BME280;51027;42.162;24.754;2023-07-31T08:11:00;99166.06;;;28.02;73.40
64616;BME280;51027;42.162;24.754;2023-07-31T08:13:25;99159.25;;;28.06;73.21
64616;BME280;51027;42.162;24.754;2023-07-31T08:15:51;99173.22;;;27.35;73.27
64616;BME280;51027;42.162;24.754;2023-07-31T08:18:16;99135.66;;;26.86;73.46
64616;BME280;51027;42.162;24.754;2023-07-31T08:20:42;99131.75;;;27.42;71.20
64616;BME280;51027;42.162;24.754;2023-07-31T08:23:08;99161.66;;;27.87;71.36
64616;BME280;51027;42.162;24.754;2023-07-31T08:25:36;99153.56;;;28.16;67.99
64616;BME280;51027;42.162;24.754;2023-07-31T08:28:03;99147.53;;;28.44;67.85
64616;BME280;51027;42.162;24.754;2023-07-31T08:30:28;99144.69;;;28.66;64.68
64616;BME280;51027;42.162;24.754;2023-07-31T08:32:54;99148.00;;;28.62;66.77
64616;BME280;51027;42.162;24.754;2023-07-31T08:35:20;99154.72;;;28.36;65.68
64616;BME280;51027;42.162;24.754;2023-07-31T08:37:46;99149.81;;;28.91;65.42
64616;BME280;51027;42.162;24.754;2023-07-31T08:40:11;99163.41;;;29.12;66.52
64616;BME280;51027;42.162;24.754;2023-07-31T08:42:46;99145.06;;;28.93;66.04
64616;BME280;51027;42.162;24.754;2023-07-31T08:45:17;99162.47;;;28.39;66.57
64616;BME280;51027;42.162;24.754;2023-07-31T08:47:48;99155.28;;;28.61;65.88
64616;BME280;51027;42.162;24.754;2023-07-31T08:50:16;99160.13;;;28.66;66.29
64616;BME280;51027;42.162;24.754;2023-07-31T08:52:42;99155.63;;;28.73;65.34
64616;BME280;51027;42.162;24.754;2023-07-31T08:55:08;99137.09;;;28.77;64.88
64616;BME280;51027;42.162;24.754;2023-07-31T08:57:36;99154.56;;;29.25;64.02
64616;BME280;51027;42.162;24.754;2023-07-31T09:00:06;99155.13;;;28.99;63.13
64616;BME280;51027;42.162;24.754;2023-07-31T09:02:38;99159.47;;;29.36;62.73
64616;BME280;51027;42.162;24.754;2023-07-31T09:05:07;99148.09;;;29.47;60.06
64616;BME280;51027;42.162;24.754;2023-07-31T09:07:34;99145.28;;;29.34;60.83
64616;BME280;51027;42.162;24.754;2023-07-31T09:10:00;99166.28;;;29.68;60.56
64616;BME280;51027;42.162;24.754;2023-07-31T09:12:25;99160.56;;;29.20;61.52
64616;BME280;51027;42.162;24.754;2023-07-31T09:14:51;99144.63;;;29.75;59.25
64616;BME280;51027;42.162;24.754;2023-07-31T09:17:28;99157.00;;;29.41;60.01
64616;BME280;51027;42.162;24.754;2023-07-31T09:19:54;99163.53;;;29.90;60.07
64616;BME280;51027;42.162;24.754;2023-07-31T09:22:34;99154.56;;;30.17;57.77
64616;BME280;51027;42.162;24.754;2023-07-31T09:30:17;99150.19;;;30.23;57.21
64616;BME280;51027;42.162;24.754;2023-07-31T09:32:44;99143.97;;;30.29;57.83
64616;BME280;51027;42.162;24.754;2023-07-31T09:35:19;99140.09;;;29.39;60.21
64616;BME280;51027;42.162;24.754;2023-07-31T09:37:52;99123.63;;;29.19;61.48
64616;BME280;51027;42.162;24.754;2023-07-31T09:40:28;99128.47;;;29.45;59.99
64616;BME280;51027;42.162;24.754;2023-07-31T09:42:57;99123.50;;;30.33;56.86
64616;BME280;51027;42.162;24.754;2023-07-31T09:45:23;99130.00;;;30.38;57.01
64616;BME280;51027;42.162;24.754;2023-07-31T09:47:48;99122.09;;;30.44;54.15
64616;BME280;51027;42.162;24.754;2023-07-31T09:50:14;99127.53;;;29.81;55.04
64616;BME280;51027;42.162;24.754;2023-07-31T09:52:41;99132.59;;;29.84;55.30
64616;BME280;51027;42.162;24.754;2023-07-31T09:55:08;99140.38;;;29.66;55.36
64616;BME280;51027;42.162;24.754;2023-07-31T09:57:33;99130.25;;;29.53;56.51
64616;BME280;51027;42.162;24.754;2023-07-31T09:59:59;99131.72;;;29.13;56.81
64616;BME280;51027;42.162;24.754;2023-07-31T10:02:26;99126.00;;;29.72;56.28
64616;BME280;51027;42.162;24.754;2023-07-31T10:04:56;99129.50;;;30.22;53.49
64616;BME280;51027;42.162;24.754;2023-07-31T10:07:25;99120.06;;;30.59;52.55
64616;BME280;51027;42.162;24.754;2023-07-31T10:09:51;99118.44;;;30.64;51.63
64616;BME280;51027;42.162;24.754;2023-07-31T10:12:19;99113.13;;;30.08;53.54
64616;BME280;51027;42.162;24.754;2023-07-31T10:14:47;99107.88;;;29.51;54.45
64616;BME280;51027;42.162;24.754;2023-07-31T10:17:16;99111.72;;;29.91;53.94
64616;BME280;51027;42.162;24.754;2023-07-31T10:19:49;99106.28;;;30.60;52.37
64616;BME280;51027;42.162;24.754;2023-07-31T10:22:19;99106.06;;;31.23;51.50
64616;BME280;51027;42.162;24.754;2023-07-31T10:24:46;99105.19;;;30.96;51.30
64616;BME280;51027;42.162;24.754;2023-07-31T10:27:12;99102.06;;;31.19;50.98
64616;BME280;51027;42.162;24.754;2023-07-31T10:29:40;99086.63;;;31.33;49.15
64616;BME280;51027;42.162;24.754;2023-07-31T10:32:07;99086.59;;;31.46;49.49
64616;BME280;51027;42.162;24.754;2023-07-31T10:34:39;99084.50;;;31.35;48.41
64616;BME280;51027;42.162;24.754;2023-07-31T10:37:26;99092.28;;;31.58;48.34
64616;BME280;51027;42.162;24.754;2023-07-31T10:40:06;99070.47;;;31.71;46.01
64616;BME280;51027;42.162;24.754;2023-07-31T10:42:56;99076.56;;;31.53;48.38
64616;BME280;51027;42.162;24.754;2023-07-31T10:45:35;99052.09;;;31.27;47.58
64616;BME280;51027;42.162;24.754;2023-07-31T10:48:15;99069.03;;;31.42;47.33
64616;BME280;51027;42.162;24.754;2023-07-31T10:50:57;99065.00;;;30.98;48.27
64616;BME280;51027;42.162;24.754;2023-07-31T10:53:29;99056.81;;;30.78;49.23
64616;BME280;51027;42.162;24.754;2023-07-31T10:56:06;99061.25;;;31.12;48.64
64616;BME280;51027;42.162;24.754;2023-07-31T10:58:32;99057.69;;;30.99;49.84
64616;BME280;51027;42.162;24.754;2023-07-31T11:01:00;99058.06;;;30.95;51.94
64616;BME280;51027;42.162;24.754;2023-07-31T11:06:19;99055.38;;;31.02;51.77
64616;BME280;51027;42.162;24.754;2023-07-31T11:08:50;99067.78;;;30.63;53.93
64616;BME280;51027;42.162;24.754;2023-07-31T11:11:18;99066.63;;;30.25;55.31
64616;BME280;51027;42.162;24.754;2023-07-31T11:13:47;99078.41;;;29.76;57.55
64616;BME280;51027;42.162;24.754;2023-07-31T11:16:19;99089.22;;;28.84;62.14
64616;BME280;51027;42.162;24.754;2023-07-31T11:18:47;99077.94;;;28.29;65.31
64616;BME280;51027;42.162;24.754;2023-07-31T11:21:14;99074.28;;;28.07;66.74
64616;BME280;51027;42.162;24.754;2023-07-31T11:23:41;99065.69;;;27.74;67.60
64616;BME280;51027;42.162;24.754;2023-07-31T11:26:07;99068.31;;;27.82;67.35
64616;BME280;51027;42.162;24.754;2023-07-31T11:28:34;99065.34;;;27.92;66.40
64616;BME280;51027;42.162;24.754;2023-07-31T11:31:00;99058.16;;;27.84;65.88
64616;BME280;51027;42.162;24.754;2023-07-31T11:33:26;99056.72;;;27.89;65.01
64616;BME280;51027;42.162;24.754;2023-07-31T11:35:52;99050.84;;;28.29;63.93
64616;BME280;51027;42.162;24.754;2023-07-31T11:38:27;99058.47;;;28.91;61.86
64616;BME280;51027;42.162;24.754;2023-07-31T11:40:54;99067.94;;;29.45;59.86
64616;BME280;51027;42.162;24.754;2023-07-31T11:43:20;99074.25;;;29.80;59.37
64616;BME280;51027;42.162;24.754;2023-07-31T11:45:54;99053.53;;;29.72;57.55
64616;BME280;51027;42.162;24.754;2023-07-31T11:48:22;99060.69;;;29.80;58.17
64616;BME280;51027;42.162;24.754;2023-07-31T11:50:52;99067.06;;;30.00;57.17
64616;BME280;51027;42.162;24.754;2023-07-31T11:53:25;99046.53;;;30.19;55.63
64616;BME280;51027;42.162;24.754;2023-07-31T11:55:51;99047.88;;;30.43;54.79
64616;BME280;51027;42.162;24.754;2023-07-31T11:58:17;99047.50;;;30.59;53.79
64616;BME280;51027;42.162;24.754;2023-07-31T12:00:44;99029.28;;;30.47;53.82
64616;BME280;51027;42.162;24.754;2023-07-31T12:03:10;99027.69;;;30.72;53.19
64616;BME280;51027;42.162;24.754;2023-07-31T12:05:37;99025.22;;;30.90;53.17
64616;BME280;51027;42.162;24.754;2023-07-31T12:08:09;99048.88;;;30.96;52.96
64616;BME280;51027;42.162;24.754;2023-07-31T12:10:34;99036.78;;;31.32;52.42
64616;BME280;51027;42.162;24.754;2023-07-31T12:13:05;99032.41;;;31.31;52.38
64616;BME280;51027;42.162;24.754;2023-07-31T12:15:34;99033.66;;;31.29;51.65
64616;BME280;51027;42.162;24.754;2023-07-31T12:18:04;99023.81;;;31.41;51.02
64616;BME280;51027;42.162;24.754;2023-07-31T12:20:30;99024.00;;;31.46;50.70
64616;BME280;51027;42.162;24.754;2023-07-31T12:22:56;99030.50;;;31.32;50.12
64616;BME280;51027;42.162;24.754;2023-07-31T12:25:22;98993.47;;;31.31;49.40
64616;BME280;51027;42.162;24.754;2023-07-31T12:27:50;99017.91;;;31.84;48.60
64616;BME280;51027;42.162;24.754;2023-07-31T12:30:33;99021.84;;;31.88;47.10
64616;BME280;51027;42.162;24.754;2023-07-31T12:33:15;99008.06;;;31.56;48.05
64616;BME280;51027;42.162;24.754;2023-07-31T12:35:44;99006.19;;;31.04;48.70
64616;BME280;51027;42.162;24.754;2023-07-31T12:38:09;99007.41;;;31.74;47.50
64616;BME280;51027;42.162;24.754;2023-07-31T12:40:39;99003.84;;;31.73;44.84
64616;BME280;51027;42.162;24.754;2023-07-31T12:43:05;98990.03;;;31.81;44.81
64616;BME280;51027;42.162;24.754;2023-07-31T12:45:31;98995.88;;;31.92;43.92
64616;BME280;51027;42.162;24.754;2023-07-31T12:47:57;98979.97;;;31.82;48.14
64616;BME280;51027;42.162;24.754;2023-07-31T12:50:23;98992.47;;;32.03;48.84
64616;BME280;51027;42.162;24.754;2023-07-31T12:52:49;98996.16;;;31.50;49.74
64616;BME280;51027;42.162;24.754;2023-07-31T12:55:14;98990.91;;;31.03;49.86
64616;BME280;51027;42.162;24.754;2023-07-31T12:57:40;98992.81;;;30.89;51.06
64616;BME280;51027;42.162;24.754;2023-07-31T13:00:07;99005.13;;;30.78;50.62
64616;BME280;51027;42.162;24.754;2023-07-31T13:02:33;98995.91;;;30.73;49.11
64616;BME280;51027;42.162;24.754;2023-07-31T13:04:58;98961.97;;;30.49;49.01
64616;BME280;51027;42.162;24.754;2023-07-31T13:07:24;98986.44;;;30.62;50.04
64616;BME280;51027;42.162;24.754;2023-07-31T13:09:49;98971.88;;;30.76;49.84
64616;BME280;51027;42.162;24.754;2023-07-31T13:12:14;98974.59;;;30.83;49.75
64616;BME280;51027;42.162;24.754;2023-07-31T13:14:40;98981.50;;;31.18;48.84
64616;BME280;51027;42.162;24.754;2023-07-31T13:17:05;98973.72;;;31.55;47.94
64616;BME280;51027;42.162;24.754;2023-07-31T13:19:31;98990.53;;;31.32;47.79
64616;BME280;51027;42.162;24.754;2023-07-31T13:21:56;98989.47;;;31.33;52.50
64616;BME280;51027;42.162;24.754;2023-07-31T13:24:22;98972.50;;;31.51;53.48
64616;BME280;51027;42.162;24.754;2023-07-31T13:26:47;98977.50;;;31.61;53.56
64616;BME280;51027;42.162;24.754;2023-07-31T13:29:13;98979.34;;;31.73;52.68
64616;BME280;51027;42.162;24.754;2023-07-31T13:31:38;98963.72;;;31.03;53.89
64616;BME280;51027;42.162;24.754;2023-07-31T13:34:03;98979.63;;;30.86;55.25
64616;BME280;51027;42.162;24.754;2023-07-31T13:36:29;98979.63;;;31.32;54.29
64616;BME280;51027;42.162;24.754;2023-07-31T13:38:54;98976.47;;;31.42;53.13
64616;BME280;51027;42.162;24.754;2023-07-31T13:41:20;98970.84;;;31.17;54.52
64616;BME280;51027;42.162;24.754;2023-07-31T13:43:45;98967.47;;;30.68;56.04
64616;BME280;51027;42.162;24.754;2023-07-31T13:46:10;98938.75;;;30.39;55.69
64616;BME280;51027;42.162;24.754;2023-07-31T13:48:36;98967.25;;;30.70;55.61
64616;BME280;51027;42.162;24.754;2023-07-31T13:51:02;98953.31;;;30.19;57.28
64616;BME280;51027;42.162;24.754;2023-07-31T13:53:27;98960.19;;;30.08;58.21
64616;BME280;51027;42.162;24.754;2023-07-31T13:55:53;98968.41;;;29.87;58.25
64616;BME280;51027;42.162;24.754;2023-07-31T13:58:18;98969.28;;;29.94;58.03
64616;BME280;51027;42.162;24.754;2023-07-31T14:00:44;98953.84;;;30.01;57.07
64616;BME280;51027;42.162;24.754;2023-07-31T14:03:09;98960.75;;;30.58;54.22
64616;BME280;51027;42.162;24.754;2023-07-31T14:05:35;98962.56;;;30.37;54.42
64616;BME280;51027;42.162;24.754;2023-07-31T14:08:00;98960.94;;;30.02;54.70
64616;BME280;51027;42.162;24.754;2023-07-31T14:10:29;98960.94;;;29.95;55.06
64616;BME280;51027;42.162;24.754;2023-07-31T14:12:54;98961.47;;;30.19;54.17
64616;BME280;51027;42.162;24.754;2023-07-31T14:15:19;98973.81;;;30.15;54.91
64616;BME280;51027;42.162;24.754;2023-07-31T14:17:45;98964.69;;;30.49;54.07
64616;BME280;51027;42.162;24.754;2023-07-31T14:20:11;98969.78;;;30.91;53.68
64616;BME280;51027;42.162;24.754;2023-07-31T14:22:37;98973.34;;;31.05;51.79
64616;BME280;51027;42.162;24.754;2023-07-31T14:25:03;98968.75;;;30.99;53.39
64616;BME280;51027;42.162;24.754;2023-07-31T14:27:29;98969.56;;;30.93;52.87
64616;BME280;51027;42.162;24.754;2023-07-31T14:29:54;98955.16;;;30.86;52.20
64616;BME280;51027;42.162;24.754;2023-07-31T14:32:21;98970.63;;;30.99;53.41
64616;BME280;51027;42.162;24.754;2023-07-31T14:34:46;98974.19;;;30.92;55.07
64616;BME280;51027;42.162;24.754;2023-07-31T14:37:11;98970.84;;;30.97;54.18
64616;BME280;51027;42.162;24.754;2023-07-31T14:39:37;98974.59;;;31.09;53.85
64616;BME280;51027;42.162;24.754;2023-07-31T14:42:02;98972.72;;;30.96;54.02
64616;BME280;51027;42.162;24.754;2023-07-31T14:44:28;98960.59;;;30.99;53.68
64616;BME280;51027;42.162;24.754;2023-07-31T14:46:53;98961.84;;;30.90;53.12
64616;BME280;51027;42.162;24.754;2023-07-31T14:49:18;98962.63;;;30.57;53.39
64616;BME280;51027;42.162;24.754;2023-07-31T14:51:44;98969.19;;;30.15;54.97
64616;BME280;51027;42.162;24.754;2023-07-31T14:54:09;98969.88;;;30.44;55.10
64616;BME280;51027;42.162;24.754;2023-07-31T14:56:35;98970.13;;;30.49;56.41
64616;BME280;51027;42.162;24.754;2023-07-31T14:59:00;98974.97;;;30.05;57.68
64616;BME280;51027;42.162;24.754;2023-07-31T15:01:25;98969.38;;;29.72;59.53
64616;BME280;51027;42.162;24.754;2023-07-31T15:03:51;98956.69;;;29.45;60.49
64616;BME280;51027;42.162;24.754;2023-07-31T15:06:16;98973.94;;;29.65;60.20
64616;BME280;51027;42.162;24.754;2023-07-31T15:08:42;98970.56;;;29.98;58.40
64616;BME280;51027;42.162;24.754;2023-07-31T15:11:07;98968.34;;;30.08;57.89
64616;BME280;51027;42.162;24.754;2023-07-31T15:13:33;98956.28;;;30.30;58.08
64616;BME280;51027;42.162;24.754;2023-07-31T15:15:59;98957.56;;;30.41;57.77
64616;BME280;51027;42.162;24.754;2023-07-31T15:18:24;98956.81;;;30.06;57.58
64616;BME280;51027;42.162;24.754;2023-07-31T15:20:50;98954.34;;;30.11;58.08
64616;BME280;51027;42.162;24.754;2023-07-31T15:23:15;98961.53;;;29.91;57.73
64616;BME280;51027;42.162;24.754;2023-07-31T15:25:41;98971.19;;;29.59;58.00
64616;BME280;51027;42.162;24.754;2023-07-31T15:28:06;98962.09;;;29.45;58.39
64616;BME280;51027;42.162;24.754;2023-07-31T15:30:32;98954.34;;;29.42;58.23
64616;BME280;51027;42.162;24.754;2023-07-31T15:32:59;98963.09;;;29.37;58.63
64616;BME280;51027;42.162;24.754;2023-07-31T15:35:24;98947.44;;;29.33;57.91
64616;BME280;51027;42.162;24.754;2023-07-31T15:37:49;98945.13;;;29.36;57.89
64616;BME280;51027;42.162;24.754;2023-07-31T15:40:15;98965.72;;;29.52;57.46
64616;BME280;51027;42.162;24.754;2023-07-31T15:42:40;98963.56;;;29.47;57.39
64616;BME280;51027;42.162;24.754;2023-07-31T15:45:08;98964.25;;;29.49;57.46
64616;BME280;51027;42.162;24.754;2023-07-31T15:47:34;98966.75;;;29.51;57.40
64616;BME280;51027;42.162;24.754;2023-07-31T15:49:59;98966.50;;;29.46;57.65
64616;BME280;51027;42.162;24.754;2023-07-31T15:52:24;98963.72;;;29.39;58.51
64616;BME280;51027;42.162;24.754;2023-07-31T15:54:50;98966.22;;;29.34;59.05
64616;BME280;51027;42.162;24.754;2023-07-31T15:57:15;98973.47;;;29.27;59.34
64616;BME280;51027;42.162;24.754;2023-07-31T15:59:41;98960.66;;;29.21;58.70
64616;BME280;51027;42.162;24.754;2023-07-31T16:02:08;98966.16;;;29.27;59.26
64616;BME280;51027;42.162;24.754;2023-07-31T16:04:36;98965.88;;;29.16;59.30
64616;BME280;51027;42.162;24.754;2023-07-31T16:07:02;98934.50;;;28.85;59.18
64616;BME280;51027;42.162;24.754;2023-07-31T16:09:27;98971.03;;;29.11;59.06
64616;BME280;51027;42.162;24.754;2023-07-31T16:11:53;98968.56;;;29.16;59.13
64616;BME280;51027;42.162;24.754;2023-07-31T16:14:18;98926.78;;;28.82;58.98
64616;BME280;51027;42.162;24.754;2023-07-31T16:16:43;98978.94;;;29.06;58.83
64616;BME280;51027;42.162;24.754;2023-07-31T16:19:09;98971.75;;;28.98;58.74
64616;BME280;51027;42.162;24.754;2023-07-31T16:21:35;98982.69;;;29.05;57.58
64616;BME280;51027;42.162;24.754;2023-07-31T16:24:01;98984.47;;;28.97;57.24